Time;durP1;ratioP1;P1;durP2;ratioP2;P2;SDS_P1;SDS_P2;PMS_P1;PMS_P2;Temp;Humidity;BMP_temperature;BMP_pressure;BME280_temperature;BME280_humidity;BME280_pressure;Samples;Min_cycle;Max_cycle;Signal;HPM_P1;HPM_P2
2023/08/12 00:01:52;;;;;;;8.25;3.60;;;;;;;;;;5070289;28;20049;-83
2023/08/12 00:04:18;;;;;;;6.60;3.60;;;;;;;;;;5070494;28;20072;-84
2023/08/12 00:06:44;;;;;;;9.73;4.28;;;;;;;;;;5071244;28;20033;-82
2023/08/12 00:09:15;;;;;;;8.60;4.05;;;;;;;;;;5070860;28;20045;-82
2023/08/12 00:11:41;;;;;;;6.30;3.83;;;;;;;;;;5052895;28;20048;-82
2023/08/12 00:14:07;;;;;;;8.57;3.95;;;;;;;;;;5060362;28;20041;-81
2023/08/12 00:16:33;;;;;;;6.13;3.47;;;;;;;;;;5070363;28;20075;-82
2023/08/12 00:19:02;;;;;;;7.88;3.67;;;;;;;;;;5068921;28;20041;-82
2023/08/12 00:21:28;;;;;;;7.47;3.80;;;;;;;;;;5064424;28;20040;-82
2023/08/12 00:23:54;;;;;;;6.93;4.07;;;;;;;;;;5070726;28;20046;-82
2023/08/12 00:26:20;;;;;;;7.38;3.83;;;;;;;;;;5052502;28;20053;-83
2023/08/12 00:28:49;;;;;;;8.75;4.00;;;;;;;;;;5070346;28;20393;-82
2023/08/12 00:31:16;;;;;;;7.80;4.20;;;;;;;;;;5070599;28;20041;-82
2023/08/12 00:33:42;;;;;;;9.38;4.13;;;;;;;;;;5056489;28;20041;-81
2023/08/12 00:36:08;;;;;;;8.70;4.40;;;;;;;;;;5046727;28;20045;-81
2023/08/12 00:38:35;;;;;;;6.80;3.83;;;;;;;;;;5062562;28;20049;-81
2023/08/12 00:41:01;;;;;;;6.97;4.20;;;;;;;;;;5070089;28;20049;-83
2023/08/12 00:43:27;;;;;;;9.85;4.32;;;;;;;;;;5068690;28;20037;-82
2023/08/12 00:45:53;;;;;;;8.63;4.50;;;;;;;;;;5069280;28;20036;-81
2023/08/12 00:48:19;;;;;;;9.40;4.95;;;;;;;;;;5070510;28;20036;-82
2023/08/12 00:50:45;;;;;;;7.63;4.72;;;;;;;;;;5068727;28;20064;-82
2023/08/12 00:53:12;;;;;;;9.25;4.90;;;;;;;;;;5048675;28;20041;-82
2023/08/12 00:55:38;;;;;;;11.35;5.22;;;;;;;;;;5063671;28;20132;-83
2023/08/12 00:58:05;;;;;;;9.18;5.97;;;;;;;;;;5049689;28;20064;-82
2023/08/12 01:00:31;;;;;;;10.65;5.95;;;;;;;;;;5056698;28;20068;-82
2023/08/12 01:03:01;;;;;;;10.15;6.57;;;;;;;;;;5068314;28;20037;-82
2023/08/12 01:05:27;;;;;;;11.45;6.85;;;;;;;;;;5068182;28;20430;-81
2023/08/12 01:07:53;;;;;;;9.85;7.00;;;;;;;;;;5068632;28;20073;-82
2023/08/12 01:10:20;;;;;;;11.70;7.18;;;;;;;;;;5068612;28;20096;-81
2023/08/12 01:13:00;;;;;;;11.50;7.47;;;;;;;;;;5068885;28;20036;-81
2023/08/12 01:15:26;;;;;;;12.73;8.00;;;;;;;;;;5064103;28;20040;-81
2023/08/12 01:17:54;;;;;;;13.40;8.18;;;;;;;;;;5051041;28;20045;-82
2023/08/12 01:20:26;;;;;;;13.35;7.70;;;;;;;;;;5030368;28;20068;-83
2023/08/12 01:22:56;;;;;;;12.45;8.50;;;;;;;;;;5066668;28;20049;-82
2023/08/12 01:25:23;;;;;;;10.52;8.02;;;;;;;;;;5068792;28;20083;-83
2023/08/12 01:27:49;;;;;;;14.00;8.60;;;;;;;;;;5068364;28;20052;-82
2023/08/12 01:30:16;;;;;;;15.27;9.32;;;;;;;;;;5078003;28;20025;-83
2023/08/12 01:32:56;;;;;;;16.52;9.48;;;;;;;;;;5070199;28;20040;-81
2023/08/12 01:35:44;;;;;;;14.13;9.02;;;;;;;;;;5068345;28;20060;-82
2023/08/12 01:38:11;;;;;;;11.57;8.50;;;;;;;;;;5068947;28;20052;-82
2023/08/12 01:40:39;;;;;;;13.65;8.43;;;;;;;;;;5066481;28;20044;-82
2023/08/12 01:43:06;;;;;;;12.85;8.90;;;;;;;;;;5065524;28;20036;-82
2023/08/12 01:45:33;;;;;;;14.02;8.85;;;;;;;;;;5058563;28;20046;-83
2023/08/12 01:48:02;;;;;;;12.93;8.55;;;;;;;;;;5048877;28;20048;-82
2023/08/12 01:50:28;;;;;;;12.85;8.45;;;;;;;;;;5047560;28;20076;-82
2023/08/12 01:52:54;;;;;;;14.00;8.90;;;;;;;;;;5065536;28;20510;-82
2023/08/12 01:55:21;;;;;;;15.10;9.57;;;;;;;;;;5068235;28;20215;-83
2023/08/12 01:57:47;;;;;;;20.33;10.00;;;;;;;;;;5068930;28;20100;-82
2023/08/12 02:00:13;;;;;;;14.75;10.27;;;;;;;;;;5067625;28;20057;-82
2023/08/12 02:02:39;;;;;;;13.90;9.55;;;;;;;;;;5069413;28;20075;-81
2023/08/12 02:05:05;;;;;;;13.90;9.90;;;;;;;;;;5068917;28;20048;-81
2023/08/12 02:07:34;;;;;;;13.15;9.90;;;;;;;;;;5068943;28;20041;-83
2023/08/12 02:10:01;;;;;;;15.45;10.57;;;;;;;;;;5054149;28;20075;-82
2023/08/12 02:12:27;;;;;;;11.43;9.38;;;;;;;;;;5064286;28;20080;-83
2023/08/12 02:14:53;;;;;;;16.05;9.45;;;;;;;;;;5057420;28;20056;-82
2023/08/12 02:17:19;;;;;;;16.27;10.15;;;;;;;;;;5069303;28;20049;-83
2023/08/12 02:19:45;;;;;;;14.20;10.48;;;;;;;;;;5061966;28;20044;-84
2023/08/12 02:22:11;;;;;;;14.02;9.43;;;;;;;;;;5068764;28;20051;-82
2023/08/12 02:24:37;;;;;;;14.20;9.80;;;;;;;;;;5038463;28;20046;-82
2023/08/12 02:27:03;;;;;;;16.23;9.77;;;;;;;;;;5062840;28;20048;-82
2023/08/12 02:29:29;;;;;;;15.10;10.65;;;;;;;;;;5069252;28;20040;-83
2023/08/12 02:31:55;;;;;;;15.00;10.07;;;;;;;;;;5058544;28;20050;-83
2023/08/12 02:34:21;;;;;;;13.35;9.90;;;;;;;;;;5063855;28;20040;-83
2023/08/12 02:36:47;;;;;;;13.82;10.55;;;;;;;;;;5067547;28;20490;-83
2023/08/12 02:39:13;;;;;;;14.18;10.75;;;;;;;;;;5068977;28;20052;-83
2023/08/12 02:41:39;;;;;;;15.43;10.95;;;;;;;;;;5047628;28;20041;-83
2023/08/12 02:44:06;;;;;;;16.30;10.90;;;;;;;;;;5049581;28;20046;-83
2023/08/12 02:46:32;;;;;;;17.70;11.15;;;;;;;;;;5064683;28;20056;-83
2023/08/12 02:49:04;;;;;;;18.40;10.50;;;;;;;;;;5068799;28;20044;-83
2023/08/12 02:51:30;;;;;;;13.35;10.57;;;;;;;;;;5068063;28;20472;-82
2023/08/12 02:53:56;;;;;;;15.80;10.38;;;;;;;;;;5068516;28;20075;-83
2023/08/12 02:56:22;;;;;;;16.48;11.23;;;;;;;;;;5069792;28;20426;-82
2023/08/12 02:58:48;;;;;;;16.98;10.25;;;;;;;;;;5069835;28;20048;-83
2023/08/12 03:01:14;;;;;;;18.00;10.88;;;;;;;;;;5067907;28;20052;-82
2023/08/12 03:03:40;;;;;;;15.15;10.23;;;;;;;;;;5068084;28;20525;-83
2023/08/12 03:06:06;;;;;;;19.08;11.35;;;;;;;;;;5053934;28;20045;-83
2023/08/12 03:08:32;;;;;;;17.15;10.52;;;;;;;;;;5058148;28;20041;-82
2023/08/12 03:10:59;;;;;;;16.25;11.10;;;;;;;;;;5073656;28;20037;-83
2023/08/12 03:13:26;;;;;;;16.52;11.38;;;;;;;;;;5064236;28;20097;-83
2023/08/12 03:15:52;;;;;;;16.75;10.65;;;;;;;;;;5071642;28;20359;-82
2023/08/12 03:18:18;;;;;;;16.75;11.82;;;;;;;;;;5070742;28;20055;-82
2023/08/12 03:20:44;;;;;;;17.40;12.20;;;;;;;;;;5060727;28;20412;-83
2023/08/12 03:23:10;;;;;;;15.20;11.10;;;;;;;;;;5070472;28;20041;-83
2023/08/12 03:25:36;;;;;;;14.88;11.88;;;;;;;;;;5071625;28;20041;-83
2023/08/12 03:28:02;;;;;;;16.92;11.80;;;;;;;;;;5071242;28;20045;-82
2023/08/12 03:30:28;;;;;;;16.38;11.93;;;;;;;;;;5061083;28;20042;-82
2023/08/12 03:32:54;;;;;;;15.38;12.13;;;;;;;;;;5044070;28;20037;-82
2023/08/12 03:35:20;;;;;;;16.42;11.73;;;;;;;;;;5071597;28;20111;-83
2023/08/12 03:37:46;;;;;;;18.08;12.23;;;;;;;;;;5072303;28;20041;-82
2023/08/12 03:40:12;;;;;;;15.88;12.10;;;;;;;;;;5069091;28;20044;-83
2023/08/12 03:42:38;;;;;;;18.25;12.85;;;;;;;;;;5072233;28;20068;-83
2023/08/12 03:45:05;;;;;;;17.58;12.23;;;;;;;;;;5058716;28;20045;-84
2023/08/12 03:47:31;;;;;;;18.77;12.85;;;;;;;;;;5069116;28;20053;-83
2023/08/12 03:49:57;;;;;;;19.45;12.07;;;;;;;;;;5071587;28;20049;-83
2023/08/12 03:52:23;;;;;;;20.63;12.55;;;;;;;;;;5071746;28;20045;-83
2023/08/12 03:54:49;;;;;;;23.40;13.55;;;;;;;;;;5070133;28;20041;-83
2023/08/12 03:57:15;;;;;;;17.63;13.18;;;;;;;;;;5064071;28;20044;-84
2023/08/12 03:59:41;;;;;;;20.10;14.05;;;;;;;;;;5071418;28;20040;-84
2023/08/12 04:02:07;;;;;;;20.63;14.25;;;;;;;;;;5071826;28;20084;-83
2023/08/12 04:04:33;;;;;;;19.27;13.27;;;;;;;;;;5071218;28;20109;-83
2023/08/12 04:07:00;;;;;;;17.23;13.40;;;;;;;;;;5070514;28;20044;-83
2023/08/12 04:09:26;;;;;;;16.40;13.07;;;;;;;;;;5066715;28;20090;-83
2023/08/12 04:11:52;;;;;;;18.20;13.63;;;;;;;;;;5057100;28;20136;-82
2023/08/12 04:14:18;;;;;;;18.60;13.63;;;;;;;;;;5067280;28;20045;-83
2023/08/12 04:16:44;;;;;;;19.10;14.45;;;;;;;;;;5071841;28;20040;-82
2023/08/12 04:19:10;;;;;;;16.50;13.52;;;;;;;;;;5065861;28;20064;-83
2023/08/12 04:21:36;;;;;;;19.40;14.98;;;;;;;;;;5070402;28;20049;-83
2023/08/12 04:24:03;;;;;;;17.35;14.13;;;;;;;;;;5064975;28;20052;-82
2023/08/12 04:26:29;;;;;;;18.35;13.63;;;;;;;;;;5064909;28;20047;-82
2023/08/12 04:28:55;;;;;;;23.23;15.07;;;;;;;;;;5054368;28;20052;-83
2023/08/12 04:31:21;;;;;;;17.85;14.40;;;;;;;;;;5057358;28;20052;-83
2023/08/12 04:33:49;;;;;;;18.20;14.02;;;;;;;;;;5069278;28;20070;-83
2023/08/12 04:36:15;;;;;;;18.20;14.85;;;;;;;;;;5068223;28;20041;-82
2023/08/12 04:38:41;;;;;;;19.02;13.98;;;;;;;;;;5051004;28;20077;-82
2023/08/12 04:41:08;;;;;;;19.73;16.00;;;;;;;;;;5069430;28;20049;-82
2023/08/12 04:43:34;;;;;;;20.20;15.57;;;;;;;;;;5069378;28;20067;-82
2023/08/12 04:46:00;;;;;;;20.13;15.43;;;;;;;;;;5069046;28;20045;-81
2023/08/12 04:48:26;;;;;;;21.48;14.68;;;;;;;;;;5048825;28;20041;-81
2023/08/12 04:50:52;;;;;;;19.92;15.63;;;;;;;;;;5058511;28;20045;-82
2023/08/12 04:53:18;;;;;;;21.48;15.82;;;;;;;;;;5061739;28;20041;-83
2023/08/12 04:55:44;;;;;;;24.33;16.17;;;;;;;;;;5056550;28;20088;-82
2023/08/12 04:58:10;;;;;;;23.73;16.30;;;;;;;;;;5065031;28;20506;-82
2023/08/12 05:00:36;;;;;;;20.15;15.70;;;;;;;;;;5034048;28;20081;-82
2023/08/12 05:03:04;;;;;;;22.85;16.80;;;;;;;;;;5068107;28;20057;-84
2023/08/12 05:05:30;;;;;;;21.10;14.65;;;;;;;;;;5050591;28;20104;-81
2023/08/12 05:07:56;;;;;;;20.83;13.82;;;;;;;;;;5068428;28;20100;-82
2023/08/12 05:10:22;;;;;;;22.25;15.93;;;;;;;;;;5065507;28;20075;-82
2023/08/12 05:12:50;;;;;;;20.33;15.20;;;;;;;;;;5061900;28;20044;-81
2023/08/12 05:15:16;;;;;;;23.08;15.52;;;;;;;;;;5047914;28;20072;-81
2023/08/12 05:17:42;;;;;;;22.92;16.13;;;;;;;;;;5067241;28;20096;-80
2023/08/12 05:20:08;;;;;;;20.58;14.50;;;;;;;;;;5047824;28;20403;-83
2023/08/12 05:22:34;;;;;;;22.15;15.00;;;;;;;;;;5049230;28;20061;-81
2023/08/12 05:25:00;;;;;;;22.35;15.77;;;;;;;;;;5066025;28;20060;-82
2023/08/12 05:27:26;;;;;;;17.35;14.65;;;;;;;;;;5065438;28;20105;-82
2023/08/12 05:29:52;;;;;;;20.95;14.93;;;;;;;;;;5050563;28;20046;-82
2023/08/12 05:32:18;;;;;;;19.98;14.98;;;;;;;;;;5043422;28;20049;-81
2023/08/12 05:34:45;;;;;;;17.70;14.55;;;;;;;;;;5057708;28;20052;-82
2023/08/12 05:37:11;;;;;;;22.10;16.00;;;;;;;;;;5068667;28;20132;-82
2023/08/12 05:39:40;;;;;;;21.63;15.45;;;;;;;;;;5067321;28;20045;-82
2023/08/12 05:42:06;;;;;;;20.83;15.90;;;;;;;;;;5068636;28;20049;-83
2023/08/12 05:44:32;;;;;;;18.85;15.07;;;;;;;;;;5049902;28;20061;-82
2023/08/12 05:46:58;;;;;;;24.23;17.10;;;;;;;;;;5066817;28;20044;-82
2023/08/12 05:49:24;;;;;;;18.35;16.35;;;;;;;;;;5064411;28;20043;-83
2023/08/12 05:51:50;;;;;;;21.08;15.82;;;;;;;;;;5064353;28;20044;-81
2023/08/12 05:54:16;;;;;;;18.45;15.65;;;;;;;;;;5066143;28;20530;-81
2023/08/12 05:56:42;;;;;;;20.48;17.25;;;;;;;;;;5048667;28;20122;-81
2023/08/12 05:59:09;;;;;;;20.92;17.42;;;;;;;;;;5049800;28;20037;-82
2023/08/12 06:01:35;;;;;;;21.88;17.00;;;;;;;;;;5065845;28;20117;-81
2023/08/12 06:04:04;;;;;;;20.90;17.25;;;;;;;;;;5053641;28;20063;-80
2023/08/12 06:06:30;;;;;;;24.00;17.05;;;;;;;;;;5062195;28;20037;-82
2023/08/12 06:08:56;;;;;;;22.33;18.50;;;;;;;;;;5065634;28;20045;-82
2023/08/12 06:11:22;;;;;;;20.05;16.60;;;;;;;;;;5065210;28;20068;-82
2023/08/12 06:13:48;;;;;;;25.88;18.40;;;;;;;;;;5064460;28;20045;-83
2023/08/12 06:16:14;;;;;;;22.92;19.23;;;;;;;;;;5044394;28;20052;-80
2023/08/12 06:18:40;;;;;;;22.58;19.15;;;;;;;;;;5060526;28;20041;-82
2023/08/12 06:21:06;;;;;;;22.45;18.83;;;;;;;;;;5062274;28;20067;-81
2023/08/12 06:23:32;;;;;;;19.50;17.40;;;;;;;;;;5063889;28;20100;-81
2023/08/12 06:26:02;;;;;;;20.65;17.90;;;;;;;;;;5064820;28;20524;-81
2023/08/12 06:28:28;;;;;;;21.63;15.93;;;;;;;;;;5065981;28;20041;-81
2023/08/12 06:30:54;;;;;;;21.92;17.17;;;;;;;;;;5066508;28;20051;-82
2023/08/12 06:33:20;;;;;;;20.23;15.65;;;;;;;;;;5060195;28;20141;-82
2023/08/12 06:35:46;;;;;;;21.45;16.83;;;;;;;;;;5037201;28;20049;-82
2023/08/12 06:38:13;;;;;;;18.35;16.45;;;;;;;;;;5060135;28;20064;-82
2023/08/12 06:40:39;;;;;;;18.65;16.58;;;;;;;;;;5064578;28;20052;-82
2023/08/12 06:43:07;;;;;;;20.88;17.92;;;;;;;;;;5051877;28;20494;-82
2023/08/12 06:45:33;;;;;;;19.13;16.98;;;;;;;;;;5047263;28;20067;-83
2023/08/12 06:47:59;;;;;;;20.92;17.33;;;;;;;;;;5053292;28;20392;-82
2023/08/12 06:50:25;;;;;;;22.45;20.15;;;;;;;;;;5026668;28;20060;-81
2023/08/12 06:52:51;;;;;;;22.70;20.23;;;;;;;;;;5047136;28;20045;-81
2023/08/12 06:55:17;;;;;;;23.73;21.23;;;;;;;;;;5064916;28;20087;-81
2023/08/12 06:57:43;;;;;;;23.25;19.85;;;;;;;;;;5063861;28;20040;-81
2023/08/12 07:00:09;;;;;;;21.45;19.17;;;;;;;;;;5064974;28;20057;-82
2023/08/12 07:02:36;;;;;;;25.83;23.13;;;;;;;;;;5065267;28;20100;-81
2023/08/12 07:05:02;;;;;;;54.15;48.83;;;;;;;;;;5064926;28;20045;-81
2023/08/12 07:07:28;;;;;;;35.58;31.98;;;;;;;;;;5064947;28;20037;-81
2023/08/12 07:09:54;;;;;;;26.88;24.10;;;;;;;;;;5065169;28;20411;-81
2023/08/12 07:12:20;;;;;;;31.60;28.25;;;;;;;;;;5064083;28;20077;-83
2023/08/12 07:14:46;;;;;;;38.17;34.17;;;;;;;;;;5047203;28;20045;-81
2023/08/12 07:17:12;;;;;;;30.45;25.50;;;;;;;;;;5064059;28;20446;-81
2023/08/12 07:19:38;;;;;;;28.17;24.30;;;;;;;;;;5064400;28;20055;-82
2023/08/12 07:22:04;;;;;;;45.28;40.92;;;;;;;;;;5065546;28;20040;-82
2023/08/12 07:24:30;;;;;;;35.65;32.03;;;;;;;;;;5046121;28;20049;-82
2023/08/12 07:26:56;;;;;;;31.33;26.95;;;;;;;;;;5068177;28;20056;-82
2023/08/12 07:29:22;;;;;;;34.85;29.10;;;;;;;;;;5067195;28;20037;-81
2023/08/12 07:31:52;;;;;;;29.70;24.40;;;;;;;;;;5064746;28;20048;-82
2023/08/12 07:34:18;;;;;;;25.40;21.55;;;;;;;;;;5047944;28;20475;-82
2023/08/12 07:36:45;;;;;;;29.65;26.10;;;;;;;;;;5047842;28;20041;-82
2023/08/12 07:39:11;;;;;;;26.63;22.98;;;;;;;;;;5065201;28;20052;-82
2023/08/12 07:41:37;;;;;;;27.92;21.95;;;;;;;;;;5065343;28;20045;-82
2023/08/12 07:44:03;;;;;;;36.95;32.75;;;;;;;;;;5066257;28;20069;-82
2023/08/12 07:46:30;;;;;;;28.02;23.52;;;;;;;;;;5066561;28;20051;-82
2023/08/12 07:48:56;;;;;;;29.60;22.25;;;;;;;;;;5065431;28;20139;-83
2023/08/12 07:51:22;;;;;;;28.40;22.90;;;;;;;;;;5064800;28;20037;-83
2023/08/12 07:53:48;;;;;;;60.60;54.30;;;;;;;;;;5060385;28;20075;-82
2023/08/12 07:56:17;;;;;;;26.92;24.08;;;;;;;;;;5068562;28;20049;-84
2023/08/12 07:58:43;;;;;;;28.77;22.98;;;;;;;;;;5071732;28;20064;-84
2023/08/12 08:01:09;;;;;;;26.58;22.90;;;;;;;;;;5071091;28;20080;-84
2023/08/12 08:03:35;;;;;;;31.85;28.52;;;;;;;;;;5071288;28;20077;-82
2023/08/12 08:06:01;;;;;;;28.20;24.60;;;;;;;;;;5070604;28;20096;-82
2023/08/12 08:08:28;;;;;;;28.70;23.40;;;;;;;;;;5044958;28;20052;-83
2023/08/12 08:10:54;;;;;;;26.35;23.55;;;;;;;;;;5052891;28;20056;-81
2023/08/12 08:13:20;;;;;;;27.08;22.67;;;;;;;;;;5070324;28;20036;-82
2023/08/12 08:15:46;;;;;;;27.88;22.95;;;;;;;;;;5070589;28;20438;-82
2023/08/12 08:18:12;;;;;;;73.70;64.80;;;;;;;;;;5046892;28;20080;-81
2023/08/12 08:20:38;;;;;;;51.50;43.15;;;;;;;;;;5064235;28;20037;-82
2023/08/12 08:23:04;;;;;;;32.13;28.88;;;;;;;;;;5070041;28;20045;-82
2023/08/12 08:25:30;;;;;;;27.50;22.77;;;;;;;;;;5072350;28;20145;-84
2023/08/12 08:27:57;;;;;;;28.10;21.80;;;;;;;;;;5070603;28;20040;-82
2023/08/12 08:30:24;;;;;;;24.13;21.05;;;;;;;;;;5038627;28;20049;-82
2023/08/12 08:32:51;;;;;;;76.25;68.10;;;;;;;;;;5050175;28;20052;-81
2023/08/12 08:35:17;;;;;;;28.92;25.90;;;;;;;;;;5053542;28;20126;-83
2023/08/12 08:37:43;;;;;;;25.20;22.52;;;;;;;;;;5070552;28;20049;-83
2023/08/12 08:40:09;;;;;;;22.10;19.80;;;;;;;;;;5069633;28;20483;-82
2023/08/12 08:42:35;;;;;;;25.77;21.02;;;;;;;;;;5060845;28;20391;-84
2023/08/12 08:45:02;;;;;;;28.08;19.33;;;;;;;;;;5059587;28;20056;-84
2023/08/12 08:47:28;;;;;;;25.58;19.77;;;;;;;;;;5066372;28;20041;-83
2023/08/12 08:49:58;;;;;;;22.55;18.48;;;;;;;;;;5062473;28;20132;-85
2023/08/12 08:52:25;;;;;;;36.60;31.48;;;;;;;;;;5046386;28;20047;-87
2023/08/12 08:54:51;;;;;;;52.55;47.45;;;;;;;;;;5044233;28;20105;-84
2023/08/12 08:57:19;;;;;;;63.00;56.40;;;;;;;;;;5063572;28;20045;-85
2023/08/12 08:59:45;;;;;;;32.97;29.60;;;;;;;;;;5062774;28;20061;-86
2023/08/12 09:02:17;;;;;;;28.48;18.48;;;;;;;;;;5062797;28;20479;-86
2023/08/12 09:04:44;;;;;;;15.57;10.50;;;;;;;;;;5058145;28;20051;-85
2023/08/12 09:07:11;;;;;;;13.40;9.23;;;;;;;;;;5061096;28;20056;-85
2023/08/12 09:09:38;;;;;;;12.73;8.25;;;;;;;;;;5046223;28;20041;-85
2023/08/12 09:12:06;;;;;;;12.05;7.53;;;;;;;;;;5060926;28;20049;-85
2023/08/12 09:14:32;;;;;;;12.60;7.53;;;;;;;;;;5056930;28;20048;-84
2023/08/12 09:16:58;;;;;;;11.00;6.60;;;;;;;;;;5056248;28;20056;-85
2023/08/12 09:19:24;;;;;;;9.40;6.28;;;;;;;;;;5050607;28;20060;-85
2023/08/12 09:21:54;;;;;;;11.60;7.03;;;;;;;;;;5054351;28;20044;-85
2023/08/12 09:24:27;;;;;;;10.80;6.35;;;;;;;;;;5059138;28;20458;-84
2023/08/12 09:26:53;;;;;;;15.80;7.78;;;;;;;;;;5045760;28;20100;-85
2023/08/12 09:29:23;;;;;;;17.02;8.63;;;;;;;;;;5060112;28;20041;-85
2023/08/12 09:31:49;;;;;;;14.00;11.32;;;;;;;;;;5023324;28;20041;-85
2023/08/12 09:34:16;;;;;;;13.52;11.38;;;;;;;;;;5058061;28;20051;-85
2023/08/12 09:36:42;;;;;;;13.82;10.57;;;;;;;;;;5060267;28;20045;-84
2023/08/12 09:39:08;;;;;;;11.52;10.27;;;;;;;;;;5060306;28;20605;-85
2023/08/12 09:41:35;;;;;;;23.02;19.88;;;;;;;;;;5061288;28;20100;-84
2023/08/12 09:44:02;;;;;;;17.55;15.45;;;;;;;;;;5048215;28;20165;-84
2023/08/12 09:46:28;;;;;;;10.32;9.32;;;;;;;;;;5059698;28;20128;-86
2023/08/12 09:48:55;;;;;;;12.40;10.43;;;;;;;;;;5061033;28;20122;-85
2023/08/12 09:51:22;;;;;;;13.02;11.60;;;;;;;;;;5061137;28;20071;-86
2023/08/12 09:53:52;;;;;;;20.23;18.43;;;;;;;;;;5053073;28;20056;-87
2023/08/12 09:56:20;;;;;;;12.35;9.88;;;;;;;;;;5060458;28;20095;-87
2023/08/12 09:58:50;;;;;;;10.20;7.30;;;;;;;;;;5062522;28;20061;-86
2023/08/12 10:01:19;;;;;;;10.88;6.78;;;;;;;;;;5058943;28;20084;-87
2023/08/12 10:03:47;;;;;;;8.50;6.05;;;;;;;;;;5060660;28;20127;-85
2023/08/12 10:06:14;;;;;;;10.48;6.93;;;;;;;;;;5056143;28;20085;-85
2023/08/12 10:08:40;;;;;;;10.68;6.53;;;;;;;;;;5048530;28;20120;-85
2023/08/12 10:11:06;;;;;;;31.23;28.35;;;;;;;;;;5041537;28;20041;-85
2023/08/12 10:13:32;;;;;;;17.42;15.73;;;;;;;;;;5024599;28;20107;-85
2023/08/12 10:16:01;;;;;;;17.20;15.32;;;;;;;;;;5041433;28;20454;-85
2023/08/12 10:18:29;;;;;;;8.23;5.65;;;;;;;;;;5028063;28;20041;-85
2023/08/12 10:20:58;;;;;;;7.13;4.93;;;;;;;;;;5060353;28;20049;-85
2023/08/12 10:23:30;;;;;;;7.60;4.22;;;;;;;;;;5037442;28;20034;-84
2023/08/12 10:25:56;;;;;;;10.35;4.60;;;;;;;;;;5060425;28;20047;-84
2023/08/12 10:28:23;;;;;;;8.13;4.57;;;;;;;;;;5058863;28;20047;-83
2023/08/12 10:30:49;;;;;;;10.45;7.75;;;;;;;;;;5061771;28;20099;-84
2023/08/12 10:33:18;;;;;;;5.80;3.50;;;;;;;;;;5058087;28;20045;-83
2023/08/12 10:35:45;;;;;;;8.45;3.72;;;;;;;;;;5038449;28;20450;-84
2023/08/12 10:38:12;;;;;;;10.20;4.57;;;;;;;;;;5027103;28;20053;-85
2023/08/12 10:40:38;;;;;;;6.63;3.15;;;;;;;;;;5037958;28;20052;-86
2023/08/12 10:43:05;;;;;;;8.73;3.40;;;;;;;;;;5023658;28;20097;-85
2023/08/12 10:46:09;;;;;;;8.05;3.42;;;;;;;;;;5055462;28;20045;-85
2023/08/12 10:48:35;;;;;;;9.88;3.30;;;;;;;;;;4978205;28;20042;-84
2023/08/12 10:51:01;;;;;;;6.57;2.67;;;;;;;;;;4978392;28;20054;-85
2023/08/12 10:53:29;;;;;;;7.55;3.90;;;;;;;;;;4979204;28;20055;-85
2023/08/12 10:55:57;;;;;;;6.75;2.85;;;;;;;;;;4978122;28;20122;-83
2023/08/12 10:58:30;;;;;;;4.45;2.17;;;;;;;;;;4962351;28;20061;-85
2023/08/12 11:00:57;;;;;;;5.30;2.47;;;;;;;;;;4979457;28;20059;-84
2023/08/12 11:03:23;;;;;;;6.75;2.38;;;;;;;;;;4976098;28;20521;-85
2023/08/12 11:05:50;;;;;;;5.57;2.58;;;;;;;;;;4977481;28;20082;-85
2023/08/12 11:08:16;;;;;;;5.80;2.70;;;;;;;;;;4975262;28;20076;-83
2023/08/12 11:10:43;;;;;;;5.82;2.58;;;;;;;;;;4976724;28;20126;-83
2023/08/12 11:13:09;;;;;;;6.22;2.65;;;;;;;;;;4979853;28;20059;-83
2023/08/12 11:15:49;;;;;;;6.38;2.30;;;;;;;;;;4978493;28;20179;-82
2023/08/12 11:18:17;;;;;;;5.00;2.58;;;;;;;;;;4984907;28;20050;-82
2023/08/12 11:20:43;;;;;;;5.60;2.33;;;;;;;;;;5063261;28;20052;-82
2023/08/12 11:23:10;;;;;;;6.28;2.30;;;;;;;;;;5058602;28;20089;-82
2023/08/12 11:25:37;;;;;;;4.85;2.45;;;;;;;;;;5061788;28;20041;-82
2023/08/12 11:28:04;;;;;;;5.38;2.03;;;;;;;;;;5061976;28;20162;-82
2023/08/12 11:30:31;;;;;;;4.07;1.70;;;;;;;;;;5066407;28;20047;-82
2023/08/12 11:32:57;;;;;;;4.00;1.70;;;;;;;;;;5064610;28;20049;-82
2023/08/12 11:35:24;;;;;;;3.22;1.50;;;;;;;;;;5050247;28;20363;-82
2023/08/12 11:37:53;;;;;;;3.70;1.70;;;;;;;;;;5058065;28;20045;-82
2023/08/12 11:40:19;;;;;;;4.15;1.60;;;;;;;;;;5066350;28;20056;-82
2023/08/12 11:42:46;;;;;;;3.25;1.70;;;;;;;;;;5062657;28;20568;-82
2023/08/12 11:45:13;;;;;;;3.00;1.20;;;;;;;;;;5070053;28;20052;-83
2023/08/12 11:47:40;;;;;;;4.65;1.70;;;;;;;;;;5066761;28;20044;-83
2023/08/12 11:50:07;;;;;;;4.47;1.50;;;;;;;;;;5064872;28;20044;-83
2023/08/12 11:52:34;;;;;;;3.13;1.27;;;;;;;;;;5069997;28;20049;-82
2023/08/12 11:55:00;;;;;;;3.92;1.40;;;;;;;;;;5068415;28;20101;-82
2023/08/12 11:57:28;;;;;;;3.28;1.30;;;;;;;;;;5068495;28;20040;-82
2023/08/12 11:59:54;;;;;;;6.82;1.60;;;;;;;;;;5071781;28;20365;-82
2023/08/12 12:02:21;;;;;;;4.05;1.70;;;;;;;;;;5071007;28;20048;-82
2023/08/12 12:04:47;;;;;;;4.43;1.60;;;;;;;;;;5067170;28;20135;-82
2023/08/12 12:07:23;;;;;;;2.70;1.40;;;;;;;;;;5050754;28;20046;-82
2023/08/12 12:09:53;;;;;;;3.95;1.67;;;;;;;;;;5066726;28;20048;-82
2023/08/12 12:12:25;;;;;;;11.20;1.30;;;;;;;;;;5064601;28;20052;-83
2023/08/12 12:14:56;;;;;;;3.47;0.90;;;;;;;;;;5034725;28;20053;-83
2023/08/12 12:17:23;;;;;;;1.52;0.70;;;;;;;;;;5060454;28;20531;-82
2023/08/12 12:19:56;;;;;;;1.70;0.80;;;;;;;;;;5065698;28;20044;-82
2023/08/12 12:22:27;;;;;;;2.92;0.80;;;;;;;;;;5067123;28;20081;-82
2023/08/12 12:24:53;;;;;;;2.17;0.90;;;;;;;;;;5066177;28;20033;-81
2023/08/12 12:27:19;;;;;;;2.83;1.00;;;;;;;;;;5066015;28;20182;-83
2023/08/12 12:29:45;;;;;;;2.72;1.02;;;;;;;;;;5068189;28;20045;-82
2023/08/12 12:32:11;;;;;;;3.63;1.10;;;;;;;;;;5062008;28;20053;-82
2023/08/12 12:34:41;;;;;;;3.60;1.15;;;;;;;;;;5052032;28;20045;-82
2023/08/12 12:37:07;;;;;;;3.80;1.05;;;;;;;;;;5071835;28;20049;-82
2023/08/12 12:39:33;;;;;;;3.50;1.00;;;;;;;;;;5058964;28;20097;-82
2023/08/12 12:41:59;;;;;;;3.00;1.10;;;;;;;;;;5074293;28;20098;-82
2023/08/12 12:44:25;;;;;;;3.67;1.10;;;;;;;;;;5075890;28;20041;-82
2023/08/12 12:46:51;;;;;;;5.43;1.30;;;;;;;;;;5073339;28;20073;-83
2023/08/12 12:49:18;;;;;;;3.40;1.17;;;;;;;;;;5056894;28;20037;-82
2023/08/12 12:51:44;;;;;;;4.28;1.20;;;;;;;;;;5047853;28;20414;-83
2023/08/12 12:54:10;;;;;;;3.88;1.30;;;;;;;;;;5063097;28;20094;-83
2023/08/12 12:56:36;;;;;;;2.25;1.13;;;;;;;;;;5044104;28;20052;-83
2023/08/12 12:59:02;;;;;;;1.98;0.90;;;;;;;;;;5064865;28;20056;-84
2023/08/12 13:01:28;;;;;;;4.00;1.02;;;;;;;;;;5064102;28;20099;-83
2023/08/12 13:03:54;;;;;;;3.58;1.30;;;;;;;;;;5062282;28;20049;-84
2023/08/12 13:06:20;;;;;;;2.50;1.08;;;;;;;;;;5061536;28;20044;-83
2023/08/12 13:08:46;;;;;;;3.80;1.10;;;;;;;;;;5046668;28;20061;-83
2023/08/12 13:11:12;;;;;;;3.83;1.52;;;;;;;;;;5060075;28;20085;-83
2023/08/12 13:13:38;;;;;;;4.47;1.50;;;;;;;;;;5059463;28;20403;-84
2023/08/12 13:16:05;;;;;;;3.63;1.30;;;;;;;;;;5041168;28;20045;-84
2023/08/12 13:18:31;;;;;;;3.80;1.30;;;;;;;;;;5061573;28;20048;-83
2023/08/12 13:20:57;;;;;;;4.80;1.35;;;;;;;;;;5059996;28;20045;-85
2023/08/12 13:23:23;;;;;;;5.55;1.30;;;;;;;;;;5063029;28;20051;-83
2023/08/12 13:25:49;;;;;;;6.15;1.50;;;;;;;;;;5046136;28;20044;-86
2023/08/12 13:28:15;;;;;;;4.18;1.25;;;;;;;;;;5062222;28;20045;-85
2023/08/12 13:30:41;;;;;;;4.72;1.40;;;;;;;;;;5035765;28;20052;-85
2023/08/12 13:33:08;;;;;;;6.28;1.50;;;;;;;;;;5060728;28;20059;-85
2023/08/12 13:35:34;;;;;;;5.68;1.67;;;;;;;;;;5041344;28;20521;-84
2023/08/12 13:38:00;;;;;;;6.13;1.58;;;;;;;;;;5059731;28;20491;-86
2023/08/12 13:40:26;;;;;;;6.55;1.85;;;;;;;;;;5052142;28;20065;-86
2023/08/12 13:42:52;;;;;;;5.60;1.30;;;;;;;;;;5051839;28;20041;-85
2023/08/12 13:45:18;;;;;;;7.07;1.50;;;;;;;;;;5059579;28;20033;-84
2023/08/12 13:47:45;;;;;;;5.43;1.77;;;;;;;;;;5061297;28;20037;-84
2023/08/12 13:50:11;;;;;;;5.47;1.73;;;;;;;;;;5061203;28;20049;-85
2023/08/12 13:52:37;;;;;;;7.47;1.70;;;;;;;;;;5063124;28;20041;-86
2023/08/12 13:55:03;;;;;;;7.45;2.00;;;;;;;;;;5062557;28;20048;-85
2023/08/12 13:57:29;;;;;;;6.18;1.63;;;;;;;;;;5043594;28;20128;-85
2023/08/12 13:59:55;;;;;;;6.57;1.67;;;;;;;;;;5056391;28;20043;-85
2023/08/12 14:02:22;;;;;;;8.60;3.15;;;;;;;;;;5058261;28;20124;-85
2023/08/12 14:04:49;;;;;;;7.68;2.00;;;;;;;;;;5063559;28;20049;-85
2023/08/12 14:07:15;;;;;;;9.10;2.03;;;;;;;;;;5064447;28;20131;-87
2023/08/12 14:09:42;;;;;;;5.80;1.73;;;;;;;;;;5055886;28;20041;-84
2023/08/12 14:12:08;;;;;;;7.20;1.75;;;;;;;;;;5060509;28;20047;-85
2023/08/12 14:14:34;;;;;;;8.38;2.08;;;;;;;;;;5060671;28;20044;-85
2023/08/12 14:17:00;;;;;;;8.52;2.00;;;;;;;;;;5062814;28;20093;-86
2023/08/12 14:19:26;;;;;;;9.70;2.20;;;;;;;;;;5027136;28;20130;-86
2023/08/12 14:21:52;;;;;;;9.10;2.10;;;;;;;;;;5062639;28;20044;-85
2023/08/12 14:24:18;;;;;;;6.18;1.52;;;;;;;;;;5060786;28;20449;-86
2023/08/12 14:26:44;;;;;;;7.80;1.83;;;;;;;;;;5062629;28;20047;-87